Petersville, Texas
Current Conditions -  °F | °C
As of 5:51 AM on Monday 20 Oct 2014 (Local Time) from KVCT Reporting Station
Haze Haze  
Wind Chill: 66°   Ceiling: 7500
Heat Index: 66°   Visibility: 3mi
Dew Point: 64°   Wind: 5mph
Humidity: 93%   Direction: 10°N
Pressure: 29.99"   Gusts: NA
Location:  29.2421°N, 97.0692°W
Report Text: KVCT 201051Z AUTO 01004KT 3SM BR BKN075 19/18 A2999 RMK AO2 SLP152 T01890178
Loading
Personal Weather Stations






























Interactive Weather Map
Tropical Storm Tracking
New forecast layout! Learn more

10-Day Weather Forecast

Advertisements
Track Severe Weather on mobile